sensor_id;sensor_type;location;lat;lon;timestamp;temperature;humidity
41838;DHT22;27511;52.042;5.178;2024-03-17T00:01:37;10.10;99.90
41838;DHT22;27511;52.042;5.178;2024-03-17T00:04:02;10.20;99.90
41838;DHT22;27511;52.042;5.178;2024-03-17T00:06:29;10.10;99.90
41838;DHT22;27511;52.042;5.178;2024-03-17T00:08:54;10.10;99.90
41838;DHT22;27511;52.042;5.178;2024-03-17T00:11:20;10.10;99.90
41838;DHT22;27511;52.042;5.178;2024-03-17T00:13:46;10.10;99.90
41838;DHT22;27511;52.042;5.178;2024-03-17T00:16:12;10.00;99.90
41838;DHT22;27511;52.042;5.178;2024-03-17T00:18:39;10.00;99.90
41838;DHT22;27511;52.042;5.178;2024-03-17T00:21:04;10.00;99.90
41838;DHT22;27511;52.042;5.178;2024-03-17T00:23:30;10.00;99.90
41838;DHT22;27511;52.042;5.178;2024-03-17T00:25:56;10.10;99.90
41838;DHT22;27511;52.042;5.178;2024-03-17T00:28:21;10.00;99.90
41838;DHT22;27511;52.042;5.178;2024-03-17T00:30:47;10.00;99.90
41838;DHT22;27511;52.042;5.178;2024-03-17T00:33:13;10.00;99.90
41838;DHT22;27511;52.042;5.178;2024-03-17T00:35:39;10.00;99.90
41838;DHT22;27511;52.042;5.178;2024-03-17T00:38:05;10.00;99.90
41838;DHT22;27511;52.042;5.178;2024-03-17T00:40:36;10.00;99.90
41838;DHT22;27511;52.042;5.178;2024-03-17T00:43:02;10.00;99.90
41838;DHT22;27511;52.042;5.178;2024-03-17T00:45:27;10.00;99.90
41838;DHT22;27511;52.042;5.178;2024-03-17T00:47:53;10.10;99.90
41838;DHT22;27511;52.042;5.178;2024-03-17T00:50:18;10.00;99.90
41838;DHT22;27511;52.042;5.178;2024-03-17T00:52:44;10.00;99.90
41838;DHT22;27511;52.042;5.178;2024-03-17T00:55:10;10.00;99.90
41838;DHT22;27511;52.042;5.178;2024-03-17T00:57:36;10.00;99.90
41838;DHT22;27511;52.042;5.178;2024-03-17T01:00:03;10.00;99.90
41838;DHT22;27511;52.042;5.178;2024-03-17T01:02:29;10.00;99.90
41838;DHT22;27511;52.042;5.178;2024-03-17T01:04:54;10.00;99.90
41838;DHT22;27511;52.042;5.178;2024-03-17T01:07:20;10.00;99.90
41838;DHT22;27511;52.042;5.178;2024-03-17T01:09:47;10.00;99.90
41838;DHT22;27511;52.042;5.178;2024-03-17T01:12:13;10.00;99.90
41838;DHT22;27511;52.042;5.178;2024-03-17T01:14:38;10.00;99.90
41838;DHT22;27511;52.042;5.178;2024-03-17T01:17:04;10.00;99.90
41838;DHT22;27511;52.042;5.178;2024-03-17T01:19:31;10.00;99.90
41838;DHT22;27511;52.042;5.178;2024-03-17T01:21:56;10.00;99.90
41838;DHT22;27511;52.042;5.178;2024-03-17T01:24:22;10.10;99.90
41838;DHT22;27511;52.042;5.178;2024-03-17T01:26:48;10.10;99.90
41838;DHT22;27511;52.042;5.178;2024-03-17T01:29:14;10.10;99.90
41838;DHT22;27511;52.042;5.178;2024-03-17T01:31:40;10.10;99.90
41838;DHT22;27511;52.042;5.178;2024-03-17T01:34:05;10.10;99.90
41838;DHT22;27511;52.042;5.178;2024-03-17T01:36:31;10.10;99.90
41838;DHT22;27511;52.042;5.178;2024-03-17T01:38:57;10.10;99.90
41838;DHT22;27511;52.042;5.178;2024-03-17T01:41:22;10.10;99.90
41838;DHT22;27511;52.042;5.178;2024-03-17T01:43:48;10.20;99.90
41838;DHT22;27511;52.042;5.178;2024-03-17T01:46:16;10.20;99.90
41838;DHT22;27511;52.042;5.178;2024-03-17T01:48:43;10.20;99.90
41838;DHT22;27511;52.042;5.178;2024-03-17T01:51:10;10.20;99.90
41838;DHT22;27511;52.042;5.178;2024-03-17T01:53:37;10.20;99.90
41838;DHT22;27511;52.042;5.178;2024-03-17T01:56:04;10.20;99.90
41838;DHT22;27511;52.042;5.178;2024-03-17T01:58:30;10.20;99.90
41838;DHT22;27511;52.042;5.178;2024-03-17T02:00:56;10.10;99.90
41838;DHT22;27511;52.042;5.178;2024-03-17T02:03:22;10.10;99.90
41838;DHT22;27511;52.042;5.178;2024-03-17T02:05:47;10.20;99.90
41838;DHT22;27511;52.042;5.178;2024-03-17T02:08:13;10.10;99.90
41838;DHT22;27511;52.042;5.178;2024-03-17T02:10:39;10.20;99.90
41838;DHT22;27511;52.042;5.178;2024-03-17T02:13:05;10.10;99.90
41838;DHT22;27511;52.042;5.178;2024-03-17T02:15:31;10.10;99.90
41838;DHT22;27511;52.042;5.178;2024-03-17T02:17:57;10.10;99.90
41838;DHT22;27511;52.042;5.178;2024-03-17T02:20:23;10.20;99.90
41838;DHT22;27511;52.042;5.178;2024-03-17T02:23:07;10.20;99.90
41838;DHT22;27511;52.042;5.178;2024-03-17T02:25:33;10.20;99.90
41838;DHT22;27511;52.042;5.178;2024-03-17T02:27:59;10.30;99.90
41838;DHT22;27511;52.042;5.178;2024-03-17T02:30:24;10.30;99.90
41838;DHT22;27511;52.042;5.178;2024-03-17T02:32:54;10.30;99.90
41838;DHT22;27511;52.042;5.178;2024-03-17T02:35:22;10.30;99.90
41838;DHT22;27511;52.042;5.178;2024-03-17T02:37:47;10.30;99.90
41838;DHT22;27511;52.042;5.178;2024-03-17T02:40:13;10.40;99.90
41838;DHT22;27511;52.042;5.178;2024-03-17T02:42:39;10.30;99.90
41838;DHT22;27511;52.042;5.178;2024-03-17T02:45:08;10.30;99.90
41838;DHT22;27511;52.042;5.178;2024-03-17T02:47:34;10.40;99.90
41838;DHT22;27511;52.042;5.178;2024-03-17T02:50:00;10.40;99.90
41838;DHT22;27511;52.042;5.178;2024-03-17T02:52:26;10.50;99.90
41838;DHT22;27511;52.042;5.178;2024-03-17T02:54:51;10.40;99.90
41838;DHT22;27511;52.042;5.178;2024-03-17T02:57:18;10.40;99.90
41838;DHT22;27511;52.042;5.178;2024-03-17T02:59:44;10.40;99.90
41838;DHT22;27511;52.042;5.178;2024-03-17T03:02:10;10.50;99.90
41838;DHT22;27511;52.042;5.178;2024-03-17T03:04:36;10.50;99.90
41838;DHT22;27511;52.042;5.178;2024-03-17T03:07:01;10.30;99.90
41838;DHT22;27511;52.042;5.178;2024-03-17T03:09:27;10.40;99.90
41838;DHT22;27511;52.042;5.178;2024-03-17T03:11:58;10.50;99.90
41838;DHT22;27511;52.042;5.178;2024-03-17T03:14:24;10.50;99.90
41838;DHT22;27511;52.042;5.178;2024-03-17T03:16:49;10.50;99.90
41838;DHT22;27511;52.042;5.178;2024-03-17T03:19:16;10.60;99.90
41838;DHT22;27511;52.042;5.178;2024-03-17T03:21:41;10.60;99.90
41838;DHT22;27511;52.042;5.178;2024-03-17T03:24:07;10.70;99.90
41838;DHT22;27511;52.042;5.178;2024-03-17T03:26:32;10.60;99.90
41838;DHT22;27511;52.042;5.178;2024-03-17T03:28:58;10.70;99.90
41838;DHT22;27511;52.042;5.178;2024-03-17T03:31:24;10.70;99.90
41838;DHT22;27511;52.042;5.178;2024-03-17T03:33:50;10.70;99.90
41838;DHT22;27511;52.042;5.178;2024-03-17T03:36:15;10.70;99.90
41838;DHT22;27511;52.042;5.178;2024-03-17T03:38:44;10.70;99.90
41838;DHT22;27511;52.042;5.178;2024-03-17T03:41:14;10.70;99.90
41838;DHT22;27511;52.042;5.178;2024-03-17T03:43:40;10.70;99.90
41838;DHT22;27511;52.042;5.178;2024-03-17T03:46:07;10.70;99.90
41838;DHT22;27511;52.042;5.178;2024-03-17T03:48:33;10.70;99.90
41838;DHT22;27511;52.042;5.178;2024-03-17T03:51:06;10.70;99.90
41838;DHT22;27511;52.042;5.178;2024-03-17T03:53:33;10.70;99.90
41838;DHT22;27511;52.042;5.178;2024-03-17T03:55:59;10.60;99.90
41838;DHT22;27511;52.042;5.178;2024-03-17T03:58:27;10.50;99.90
41838;DHT22;27511;52.042;5.178;2024-03-17T04:00:54;10.40;99.90
41838;DHT22;27511;52.042;5.178;2024-03-17T04:03:20;10.50;99.90
41838;DHT22;27511;52.042;5.178;2024-03-17T04:05:46;10.70;99.90
41838;DHT22;27511;52.042;5.178;2024-03-17T04:08:11;10.70;99.90
41838;DHT22;27511;52.042;5.178;2024-03-17T04:10:37;10.70;99.90
41838;DHT22;27511;52.042;5.178;2024-03-17T04:13:03;10.70;99.90
41838;DHT22;27511;52.042;5.178;2024-03-17T04:15:29;10.80;99.90
41838;DHT22;27511;52.042;5.178;2024-03-17T04:17:54;10.70;99.90
41838;DHT22;27511;52.042;5.178;2024-03-17T04:20:20;10.70;99.90
41838;DHT22;27511;52.042;5.178;2024-03-17T04:22:46;10.40;99.90
41838;DHT22;27511;52.042;5.178;2024-03-17T04:25:13;10.50;99.90
41838;DHT22;27511;52.042;5.178;2024-03-17T04:27:39;10.60;99.90
41838;DHT22;27511;52.042;5.178;2024-03-17T04:30:06;10.80;99.90
41838;DHT22;27511;52.042;5.178;2024-03-17T04:32:32;10.80;99.90
41838;DHT22;27511;52.042;5.178;2024-03-17T04:34:58;10.90;99.90
41838;DHT22;27511;52.042;5.178;2024-03-17T04:37:23;10.90;99.90
41838;DHT22;27511;52.042;5.178;2024-03-17T04:39:50;10.80;99.90
41838;DHT22;27511;52.042;5.178;2024-03-17T04:42:17;10.80;99.90
41838;DHT22;27511;52.042;5.178;2024-03-17T04:44:43;10.50;99.90
41838;DHT22;27511;52.042;5.178;2024-03-17T04:47:09;10.30;99.90
41838;DHT22;27511;52.042;5.178;2024-03-17T04:49:36;10.20;99.90
41838;DHT22;27511;52.042;5.178;2024-03-17T04:52:01;10.30;99.90
41838;DHT22;27511;52.042;5.178;2024-03-17T04:54:27;10.40;99.90
41838;DHT22;27511;52.042;5.178;2024-03-17T04:56:52;10.70;99.90
41838;DHT22;27511;52.042;5.178;2024-03-17T04:59:18;10.70;99.90
41838;DHT22;27511;52.042;5.178;2024-03-17T05:01:44;10.80;99.90
41838;DHT22;27511;52.042;5.178;2024-03-17T05:04:10;10.80;99.90
41838;DHT22;27511;52.042;5.178;2024-03-17T05:06:35;10.80;99.90
41838;DHT22;27511;52.042;5.178;2024-03-17T05:09:01;10.80;99.90
41838;DHT22;27511;52.042;5.178;2024-03-17T05:11:27;10.80;99.90
41838;DHT22;27511;52.042;5.178;2024-03-17T05:13:52;10.90;99.90
41838;DHT22;27511;52.042;5.178;2024-03-17T05:16:18;10.90;99.90
41838;DHT22;27511;52.042;5.178;2024-03-17T05:18:43;10.80;99.90
41838;DHT22;27511;52.042;5.178;2024-03-17T05:21:09;10.80;99.90
41838;DHT22;27511;52.042;5.178;2024-03-17T05:23:36;10.80;99.90
41838;DHT22;27511;52.042;5.178;2024-03-17T05:26:03;10.70;99.90
41838;DHT22;27511;52.042;5.178;2024-03-17T05:28:32;10.80;99.90
41838;DHT22;27511;52.042;5.178;2024-03-17T05:30:57;10.70;99.90
41838;DHT22;27511;52.042;5.178;2024-03-17T05:33:25;10.70;99.90
41838;DHT22;27511;52.042;5.178;2024-03-17T05:35:55;10.80;99.90
41838;DHT22;27511;52.042;5.178;2024-03-17T05:38:28;10.70;99.90
41838;DHT22;27511;52.042;5.178;2024-03-17T05:41:02;10.70;99.90
41838;DHT22;27511;52.042;5.178;2024-03-17T05:43:29;10.70;99.90
41838;DHT22;27511;52.042;5.178;2024-03-17T05:46:00;10.70;99.90
41838;DHT22;27511;52.042;5.178;2024-03-17T05:48:29;10.70;99.90
41838;DHT22;27511;52.042;5.178;2024-03-17T05:50:55;10.70;99.90
41838;DHT22;27511;52.042;5.178;2024-03-17T05:53:21;10.70;99.90
41838;DHT22;27511;52.042;5.178;2024-03-17T05:55:49;10.70;99.90
41838;DHT22;27511;52.042;5.178;2024-03-17T05:58:15;10.60;99.90
41838;DHT22;27511;52.042;5.178;2024-03-17T06:00:40;10.60;99.90
41838;DHT22;27511;52.042;5.178;2024-03-17T06:03:07;10.50;99.90
41838;DHT22;27511;52.042;5.178;2024-03-17T06:05:33;10.50;99.90
41838;DHT22;27511;52.042;5.178;2024-03-17T06:08:00;10.60;99.90
41838;DHT22;27511;52.042;5.178;2024-03-17T06:10:28;10.40;99.90
41838;DHT22;27511;52.042;5.178;2024-03-17T06:12:53;10.50;99.90
41838;DHT22;27511;52.042;5.178;2024-03-17T06:15:19;10.50;99.90
41838;DHT22;27511;52.042;5.178;2024-03-17T06:17:46;10.60;99.90
41838;DHT22;27511;52.042;5.178;2024-03-17T06:20:12;10.40;99.90
41838;DHT22;27511;52.042;5.178;2024-03-17T06:22:39;10.60;99.90
41838;DHT22;27511;52.042;5.178;2024-03-17T06:25:08;10.60;99.90
41838;DHT22;27511;52.042;5.178;2024-03-17T06:27:33;10.70;99.90
41838;DHT22;27511;52.042;5.178;2024-03-17T06:30:00;10.70;99.90
41838;DHT22;27511;52.042;5.178;2024-03-17T06:32:29;10.60;99.90
41838;DHT22;27511;52.042;5.178;2024-03-17T06:34:55;10.60;99.90
41838;DHT22;27511;52.042;5.178;2024-03-17T06:37:22;10.60;99.90
41838;DHT22;27511;52.042;5.178;2024-03-17T06:39:48;10.50;99.90
41838;DHT22;27511;52.042;5.178;2024-03-17T06:42:14;10.70;99.90
41838;DHT22;27511;52.042;5.178;2024-03-17T06:44:39;10.60;99.90
41838;DHT22;27511;52.042;5.178;2024-03-17T06:47:05;10.60;99.90
41838;DHT22;27511;52.042;5.178;2024-03-17T06:49:31;10.60;99.90
41838;DHT22;27511;52.042;5.178;2024-03-17T06:51:56;10.60;99.90
41838;DHT22;27511;52.042;5.178;2024-03-17T06:54:22;10.50;99.90
41838;DHT22;27511;52.042;5.178;2024-03-17T06:56:48;10.60;99.90
41838;DHT22;27511;52.042;5.178;2024-03-17T06:59:13;10.50;99.90
41838;DHT22;27511;52.042;5.178;2024-03-17T07:01:39;10.60;99.90
41838;DHT22;27511;52.042;5.178;2024-03-17T07:04:04;10.80;99.90
41838;DHT22;27511;52.042;5.178;2024-03-17T07:06:30;10.80;99.90
41838;DHT22;27511;52.042;5.178;2024-03-17T07:08:56;10.80;99.90
41838;DHT22;27511;52.042;5.178;2024-03-17T07:11:22;10.40;99.90
41838;DHT22;27511;52.042;5.178;2024-03-17T07:13:49;10.20;99.90
41838;DHT22;27511;52.042;5.178;2024-03-17T07:16:18;10.30;99.90
41838;DHT22;27511;52.042;5.178;2024-03-17T07:18:43;10.50;99.90
41838;DHT22;27511;52.042;5.178;2024-03-17T07:21:10;10.70;99.90
41838;DHT22;27511;52.042;5.178;2024-03-17T07:23:36;10.80;99.90
41838;DHT22;27511;52.042;5.178;2024-03-17T07:26:02;10.90;99.90
41838;DHT22;27511;52.042;5.178;2024-03-17T07:28:31;11.00;99.90
41838;DHT22;27511;52.042;5.178;2024-03-17T07:30:58;11.00;99.90
41838;DHT22;27511;52.042;5.178;2024-03-17T07:33:24;11.00;99.90
41838;DHT22;27511;52.042;5.178;2024-03-17T07:35:59;10.70;99.90
41838;DHT22;27511;52.042;5.178;2024-03-17T07:38:27;10.80;99.90
41838;DHT22;27511;52.042;5.178;2024-03-17T07:41:00;10.90;99.90
41838;DHT22;27511;52.042;5.178;2024-03-17T07:43:28;11.00;99.90
41838;DHT22;27511;52.042;5.178;2024-03-17T07:46:03;10.90;99.90
41838;DHT22;27511;52.042;5.178;2024-03-17T07:48:30;11.10;99.90
41838;DHT22;27511;52.042;5.178;2024-03-17T07:50:57;11.30;99.90
41838;DHT22;27511;52.042;5.178;2024-03-17T07:53:22;11.10;99.90
41838;DHT22;27511;52.042;5.178;2024-03-17T07:55:57;10.90;99.90
41838;DHT22;27511;52.042;5.178;2024-03-17T07:58:24;11.20;99.90
41838;DHT22;27511;52.042;5.178;2024-03-17T08:00:51;11.00;99.90
41838;DHT22;27511;52.042;5.178;2024-03-17T08:03:18;10.80;99.90
41838;DHT22;27511;52.042;5.178;2024-03-17T08:05:48;10.60;99.90
41838;DHT22;27511;52.042;5.178;2024-03-17T08:08:15;10.60;99.90
41838;DHT22;27511;52.042;5.178;2024-03-17T08:10:40;10.90;99.90
41838;DHT22;27511;52.042;5.178;2024-03-17T08:13:06;10.90;99.90
41838;DHT22;27511;52.042;5.178;2024-03-17T08:15:37;10.70;99.90
41838;DHT22;27511;52.042;5.178;2024-03-17T08:18:02;10.90;99.90
41838;DHT22;27511;52.042;5.178;2024-03-17T08:20:29;11.30;99.90
41838;DHT22;27511;52.042;5.178;2024-03-17T08:22:55;11.60;99.90
41838;DHT22;27511;52.042;5.178;2024-03-17T08:25:21;11.80;99.90
41838;DHT22;27511;52.042;5.178;2024-03-17T08:27:46;11.20;99.90
41838;DHT22;27511;52.042;5.178;2024-03-17T08:30:12;10.80;99.90
41838;DHT22;27511;52.042;5.178;2024-03-17T08:32:41;10.80;99.90
41838;DHT22;27511;52.042;5.178;2024-03-17T08:35:07;11.20;99.90
41838;DHT22;27511;52.042;5.178;2024-03-17T08:37:32;11.70;99.90
41838;DHT22;27511;52.042;5.178;2024-03-17T08:40:01;11.80;99.90
41838;DHT22;27511;52.042;5.178;2024-03-17T08:42:26;12.00;99.90
41838;DHT22;27511;52.042;5.178;2024-03-17T08:44:52;11.60;99.90
41838;DHT22;27511;52.042;5.178;2024-03-17T08:47:18;11.20;99.90
41838;DHT22;27511;52.042;5.178;2024-03-17T08:49:44;11.60;99.90
41838;DHT22;27511;52.042;5.178;2024-03-17T08:52:09;11.50;99.90
41838;DHT22;27511;52.042;5.178;2024-03-17T08:54:35;11.10;99.90
41838;DHT22;27511;52.042;5.178;2024-03-17T08:57:01;11.10;99.90
41838;DHT22;27511;52.042;5.178;2024-03-17T08:59:27;11.00;99.90
41838;DHT22;27511;52.042;5.178;2024-03-17T09:01:53;11.40;99.90
41838;DHT22;27511;52.042;5.178;2024-03-17T09:04:19;11.70;99.90
41838;DHT22;27511;52.042;5.178;2024-03-17T09:06:44;12.10;99.90
41838;DHT22;27511;52.042;5.178;2024-03-17T09:09:10;12.20;99.90
41838;DHT22;27511;52.042;5.178;2024-03-17T09:11:36;12.10;99.90
41838;DHT22;27511;52.042;5.178;2024-03-17T09:14:01;11.90;99.90
41838;DHT22;27511;52.042;5.178;2024-03-17T09:16:27;12.00;99.90
41838;DHT22;27511;52.042;5.178;2024-03-17T09:18:55;11.70;99.90
41838;DHT22;27511;52.042;5.178;2024-03-17T09:21:21;11.50;99.90
41838;DHT22;27511;52.042;5.178;2024-03-17T09:23:47;12.00;99.90
41838;DHT22;27511;52.042;5.178;2024-03-17T09:26:14;12.20;99.90
41838;DHT22;27511;52.042;5.178;2024-03-17T09:28:41;11.50;99.90
41838;DHT22;27511;52.042;5.178;2024-03-17T09:31:07;11.10;99.90
41838;DHT22;27511;52.042;5.178;2024-03-17T09:33:34;11.20;99.90
41838;DHT22;27511;52.042;5.178;2024-03-17T09:36:07;11.80;99.90
41838;DHT22;27511;52.042;5.178;2024-03-17T09:38:35;11.90;99.90
41838;DHT22;27511;52.042;5.178;2024-03-17T09:41:01;11.60;99.90
41838;DHT22;27511;52.042;5.178;2024-03-17T09:43:28;11.80;99.90
41838;DHT22;27511;52.042;5.178;2024-03-17T09:45:54;12.30;99.90
41838;DHT22;27511;52.042;5.178;2024-03-17T09:48:27;12.40;99.90
41838;DHT22;27511;52.042;5.178;2024-03-17T09:50:54;12.10;99.90
41838;DHT22;27511;52.042;5.178;2024-03-17T09:53:27;12.30;99.90
41838;DHT22;27511;52.042;5.178;2024-03-17T09:56:09;12.30;99.90
41838;DHT22;27511;52.042;5.178;2024-03-17T09:58:35;12.30;99.90
41838;DHT22;27511;52.042;5.178;2024-03-17T10:01:00;12.70;99.90
41838;DHT22;27511;52.042;5.178;2024-03-17T10:06:08;12.70;99.90
41838;DHT22;27511;52.042;5.178;2024-03-17T10:08:49;12.80;99.90
41838;DHT22;27511;52.042;5.178;2024-03-17T10:11:32;12.70;99.90
41838;DHT22;27511;52.042;5.178;2024-03-17T10:14:02;13.00;99.90
41838;DHT22;27511;52.042;5.178;2024-03-17T10:16:29;12.70;99.90
41838;DHT22;27511;52.042;5.178;2024-03-17T10:19:12;12.80;99.90
41838;DHT22;27511;52.042;5.178;2024-03-17T10:21:40;12.60;99.90
41838;DHT22;27511;52.042;5.178;2024-03-17T10:24:07;12.60;99.90
41838;DHT22;27511;52.042;5.178;2024-03-17T10:26:37;13.00;99.90
41838;DHT22;27511;52.042;5.178;2024-03-17T10:31:59;13.40;99.90
41838;DHT22;27511;52.042;5.178;2024-03-17T10:34:26;13.40;99.90
41838;DHT22;27511;52.042;5.178;2024-03-17T10:37:16;13.60;99.90
41838;DHT22;27511;52.042;5.178;2024-03-17T10:39:50;13.50;99.90
41838;DHT22;27511;52.042;5.178;2024-03-17T10:42:24;13.60;99.90
41838;DHT22;27511;52.042;5.178;2024-03-17T10:44:50;13.60;99.90
41838;DHT22;27511;52.042;5.178;2024-03-17T10:47:23;13.70;99.90
41838;DHT22;27511;52.042;5.178;2024-03-17T10:49:53;13.70;99.90
41838;DHT22;27511;52.042;5.178;2024-03-17T10:52:21;14.00;99.90
41838;DHT22;27511;52.042;5.178;2024-03-17T10:54:54;13.40;99.90
41838;DHT22;27511;52.042;5.178;2024-03-17T11:00:03;14.10;99.90
41838;DHT22;27511;52.042;5.178;2024-03-17T11:02:34;14.00;99.90
41838;DHT22;27511;52.042;5.178;2024-03-17T11:05:07;14.00;99.90
41838;DHT22;27511;52.042;5.178;2024-03-17T11:07:37;13.70;99.90
41838;DHT22;27511;52.042;5.178;2024-03-17T11:10:05;13.60;99.90
41838;DHT22;27511;52.042;5.178;2024-03-17T11:12:48;13.90;99.90
41838;DHT22;27511;52.042;5.178;2024-03-17T11:17:53;13.70;99.90
41838;DHT22;27511;52.042;5.178;2024-03-17T11:20:25;13.30;99.90
41838;DHT22;27511;52.042;5.178;2024-03-17T11:22:52;13.20;99.90
41838;DHT22;27511;52.042;5.178;2024-03-17T11:28:06;13.10;99.90
41838;DHT22;27511;52.042;5.178;2024-03-17T11:30:42;13.40;99.90
41838;DHT22;27511;52.042;5.178;2024-03-17T11:38:57;14.40;99.90
41838;DHT22;27511;52.042;5.178;2024-03-17T11:41:43;14.30;99.90
41838;DHT22;27511;52.042;5.178;2024-03-17T11:44:28;13.90;99.90
41838;DHT22;27511;52.042;5.178;2024-03-17T11:46:58;14.20;99.90
41838;DHT22;27511;52.042;5.178;2024-03-17T11:52:04;14.10;99.90
41838;DHT22;27511;52.042;5.178;2024-03-17T11:54:35;14.10;99.90
41838;DHT22;27511;52.042;5.178;2024-03-17T11:59:27;13.00;99.90
41838;DHT22;27511;52.042;5.178;2024-03-17T12:01:53;13.20;99.90
41838;DHT22;27511;52.042;5.178;2024-03-17T12:04:20;13.50;99.90
41838;DHT22;27511;52.042;5.178;2024-03-17T12:06:47;13.60;99.90
41838;DHT22;27511;52.042;5.178;2024-03-17T12:14:26;14.00;99.90
41838;DHT22;27511;52.042;5.178;2024-03-17T12:16:53;14.10;99.90
41838;DHT22;27511;52.042;5.178;2024-03-17T12:19:19;13.70;99.90
41838;DHT22;27511;52.042;5.178;2024-03-17T12:21:49;13.70;99.90
41838;DHT22;27511;52.042;5.178;2024-03-17T12:24:24;13.90;99.90
41838;DHT22;27511;52.042;5.178;2024-03-17T12:26:51;13.80;99.90
41838;DHT22;27511;52.042;5.178;2024-03-17T12:29:39;14.20;99.90
41838;DHT22;27511;52.042;5.178;2024-03-17T12:32:17;14.50;99.90
41838;DHT22;27511;52.042;5.178;2024-03-17T12:34:45;14.90;99.90
41838;DHT22;27511;52.042;5.178;2024-03-17T12:37:19;14.60;99.90
41838;DHT22;27511;52.042;5.178;2024-03-17T12:39:45;14.70;99.90
41838;DHT22;27511;52.042;5.178;2024-03-17T12:42:15;14.70;99.90
41838;DHT22;27511;52.042;5.178;2024-03-17T12:44:53;14.50;99.90
41838;DHT22;27511;52.042;5.178;2024-03-17T12:49:53;14.20;99.90
41838;DHT22;27511;52.042;5.178;2024-03-17T12:52:29;14.40;99.90
41838;DHT22;27511;52.042;5.178;2024-03-17T12:55:03;14.00;99.90
41838;DHT22;27511;52.042;5.178;2024-03-17T12:57:52;13.90;99.90
41838;DHT22;27511;52.042;5.178;2024-03-17T13:00:37;14.20;99.90
41838;DHT22;27511;52.042;5.178;2024-03-17T13:03:07;14.10;99.90
41838;DHT22;27511;52.042;5.178;2024-03-17T13:05:34;14.00;99.90
41838;DHT22;27511;52.042;5.178;2024-03-17T13:08:00;14.20;99.90
41838;DHT22;27511;52.042;5.178;2024-03-17T13:10:26;13.90;99.90
41838;DHT22;27511;52.042;5.178;2024-03-17T13:15:27;14.10;99.90
41838;DHT22;27511;52.042;5.178;2024-03-17T13:17:53;14.40;99.90
41838;DHT22;27511;52.042;5.178;2024-03-17T13:20:19;14.10;99.90
41838;DHT22;27511;52.042;5.178;2024-03-17T13:22:45;14.00;99.90
41838;DHT22;27511;52.042;5.178;2024-03-17T13:25:20;14.10;99.90
41838;DHT22;27511;52.042;5.178;2024-03-17T13:27:50;14.30;99.90
41838;DHT22;27511;52.042;5.178;2024-03-17T13:30:17;14.30;99.90
41838;DHT22;27511;52.042;5.178;2024-03-17T13:32:44;14.40;99.90
41838;DHT22;27511;52.042;5.178;2024-03-17T13:35:17;14.50;99.90
41838;DHT22;27511;52.042;5.178;2024-03-17T13:37:45;14.20;99.90
41838;DHT22;27511;52.042;5.178;2024-03-17T13:40:11;14.10;99.90
41838;DHT22;27511;52.042;5.178;2024-03-17T13:42:39;14.10;99.90
41838;DHT22;27511;52.042;5.178;2024-03-17T13:45:05;13.80;99.90
41838;DHT22;27511;52.042;5.178;2024-03-17T13:47:34;14.00;99.90
41838;DHT22;27511;52.042;5.178;2024-03-17T13:50:00;14.20;99.90
41838;DHT22;27511;52.042;5.178;2024-03-17T13:52:25;14.30;99.90
41838;DHT22;27511;52.042;5.178;2024-03-17T13:54:51;14.60;99.90
41838;DHT22;27511;52.042;5.178;2024-03-17T13:57:16;14.20;99.90
41838;DHT22;27511;52.042;5.178;2024-03-17T13:59:42;14.30;99.90
41838;DHT22;27511;52.042;5.178;2024-03-17T14:02:12;14.30;99.90
41838;DHT22;27511;52.042;5.178;2024-03-17T14:04:38;14.60;99.90
41838;DHT22;27511;52.042;5.178;2024-03-17T14:07:03;15.00;99.90
41838;DHT22;27511;52.042;5.178;2024-03-17T14:09:30;14.80;99.90
41838;DHT22;27511;52.042;5.178;2024-03-17T14:11:56;14.80;99.90
41838;DHT22;27511;52.042;5.178;2024-03-17T14:14:23;15.00;99.90
41838;DHT22;27511;52.042;5.178;2024-03-17T14:16:48;15.30;99.90
41838;DHT22;27511;52.042;5.178;2024-03-17T14:19:14;15.40;99.90
41838;DHT22;27511;52.042;5.178;2024-03-17T14:21:39;15.00;99.90
41838;DHT22;27511;52.042;5.178;2024-03-17T14:24:05;15.10;99.90
41838;DHT22;27511;52.042;5.178;2024-03-17T14:26:33;15.20;99.90
41838;DHT22;27511;52.042;5.178;2024-03-17T14:29:01;14.90;99.90
41838;DHT22;27511;52.042;5.178;2024-03-17T14:31:30;14.70;99.90
41838;DHT22;27511;52.042;5.178;2024-03-17T14:33:57;15.00;99.90
41838;DHT22;27511;52.042;5.178;2024-03-17T14:36:22;15.00;99.90
41838;DHT22;27511;52.042;5.178;2024-03-17T14:38:52;15.10;99.90
41838;DHT22;27511;52.042;5.178;2024-03-17T14:41:19;15.00;99.90
41838;DHT22;27511;52.042;5.178;2024-03-17T14:43:45;15.00;99.90
41838;DHT22;27511;52.042;5.178;2024-03-17T14:46:11;15.10;99.90
41838;DHT22;27511;52.042;5.178;2024-03-17T14:48:41;15.40;99.90
41838;DHT22;27511;52.042;5.178;2024-03-17T14:51:08;15.30;99.90
41838;DHT22;27511;52.042;5.178;2024-03-17T14:53:34;15.10;99.90
41838;DHT22;27511;52.042;5.178;2024-03-17T14:56:02;15.50;99.90
41838;DHT22;27511;52.042;5.178;2024-03-17T14:58:28;15.30;99.90
41838;DHT22;27511;52.042;5.178;2024-03-17T15:00:54;15.10;99.90
41838;DHT22;27511;52.042;5.178;2024-03-17T15:03:20;15.10;99.90
41838;DHT22;27511;52.042;5.178;2024-03-17T15:05:45;14.80;99.90
41838;DHT22;27511;52.042;5.178;2024-03-17T15:08:11;15.00;99.90
41838;DHT22;27511;52.042;5.178;2024-03-17T15:10:37;15.30;99.90
41838;DHT22;27511;52.042;5.178;2024-03-17T15:13:02;15.30;99.90
41838;DHT22;27511;52.042;5.178;2024-03-17T15:15:28;15.40;99.90
41838;DHT22;27511;52.042;5.178;2024-03-17T15:17:53;15.10;99.90
41838;DHT22;27511;52.042;5.178;2024-03-17T15:20:19;15.10;99.90
41838;DHT22;27511;52.042;5.178;2024-03-17T15:22:50;15.30;99.90
41838;DHT22;27511;52.042;5.178;2024-03-17T15:25:17;15.10;99.90
41838;DHT22;27511;52.042;5.178;2024-03-17T15:27:43;15.50;99.90
41838;DHT22;27511;52.042;5.178;2024-03-17T15:30:14;15.40;99.90
41838;DHT22;27511;52.042;5.178;2024-03-17T15:32:46;15.00;99.90
41838;DHT22;27511;52.042;5.178;2024-03-17T15:35:12;15.10;99.90
41838;DHT22;27511;52.042;5.178;2024-03-17T15:37:42;15.20;99.90
41838;DHT22;27511;52.042;5.178;2024-03-17T15:40:09;15.00;99.90
41838;DHT22;27511;52.042;5.178;2024-03-17T15:42:45;15.00;99.90
41838;DHT22;27511;52.042;5.178;2024-03-17T15:45:12;15.10;99.90
41838;DHT22;27511;52.042;5.178;2024-03-17T15:47:37;14.80;99.90
41838;DHT22;27511;52.042;5.178;2024-03-17T15:50:03;14.90;99.90
41838;DHT22;27511;52.042;5.178;2024-03-17T15:52:29;14.90;99.90
41838;DHT22;27511;52.042;5.178;2024-03-17T15:54:56;14.90;99.90
41838;DHT22;27511;52.042;5.178;2024-03-17T15:57:22;14.90;99.90
41838;DHT22;27511;52.042;5.178;2024-03-17T15:59:48;15.30;99.90
41838;DHT22;27511;52.042;5.178;2024-03-17T16:02:13;15.40;99.90
41838;DHT22;27511;52.042;5.178;2024-03-17T16:04:39;15.30;99.90
41838;DHT22;27511;52.042;5.178;2024-03-17T16:07:06;15.60;99.90